Time;durP1;ratioP1;P1;durP2;ratioP2;P2;SDS_P1;SDS_P2;PMS_P1;PMS_P2;Temp;Humidity;BMP_temperature;BMP_pressure;BME280_temperature;BME280_humidity;BME280_pressure;Samples;Min_cycle;Max_cycle;Signal;HPM_P1;HPM_P2
2024/03/03 00:00:07;;;;;;;;;;;9.70;1.00;;;;;;6220564;23;19967;-89
2024/03/03 00:05:37;;;;;;;;;;;9.40;1.00;;;;;;6149514;23;19950;-89
2024/03/03 00:08:28;;;;;;;;;;;;;;;;;;;;;
2024/03/03 00:11:03;;;;;;;;;;;9.80;1.00;;;;;;6244416;23;20002;-90
2024/03/03 00:16:39;;;;;;;;;;;9.90;9.00;;;;;;6105788;23;19945;-89
2024/03/03 00:25:10;;;;;;;;;;;10.10;22.00;;;;;;6102632;23;19922;-88
2024/03/03 00:27:58;;;;;;;;;;;9.30;23.50;;;;;;6163268;23;19967;-91
2024/03/03 00:30:54;;;;;;;;;;;;;;;;;;;;;
2024/03/03 00:39:53;;;;;;;;;;;9.60;39.90;;;;;;6147051;23;20305;-90
2024/03/03 00:51:35;;;;;;;;;;;7.90;40.60;;;;;;6157221;23;19924;-90
2024/03/03 00:54:14;;;;;;;;;;;9.00;40.90;;;;;;6183628;23;19919;-91
2024/03/03 00:57:17;;;;;;;;;;;9.20;51.50;;;;;;6193501;23;19982;-90
2024/03/03 01:00:20;;;;;;;;;;;9.40;41.80;;;;;;6194826;23;20249;-89
2024/03/03 01:40:34;;;;;;;;;;;7.60;30.80;;;;;;6070470;23;19923;-89
2024/03/03 01:43:28;;;;;;;;;;;9.00;52.90;;;;;;6233058;23;19950;-91
2024/03/03 01:46:32;;;;;;;;;;;;;;;;;;;;;
2024/03/03 01:49:36;;;;;;;;;;;;;;;;;;;;;
2024/03/03 02:05:31;;;;;;;;;;;8.00;99.90;;;;;;6046553;23;19973;-89
2024/03/03 02:14:07;;;;;;;;;;;8.50;99.90;;;;;;6038030;23;19981;-91
2024/03/03 02:32:14;;;;;;;;;;;6.70;99.90;;;;;;6203145;23;19978;-91
2024/03/03 02:37:56;;;;;;;;;;;7.70;99.90;;;;;;6222341;23;20041;-90
2024/03/03 02:40:48;;;;;;;;;;;8.40;99.90;;;;;;6235667;23;19958;-90
2024/03/03 02:52:10;;;;;;;;;;;7.00;99.90;;;;;;6175245;23;19970;-90
2024/03/03 02:57:59;;;;;;;;;;;8.40;99.90;;;;;;6130387;23;20290;-91
2024/03/03 03:03:39;;;;;;;;;;;7.90;99.90;;;;;;6128160;23;19955;-91
2024/03/03 03:09:28;;;;;;;;;;;;;;;;;;;;;
2024/03/03 03:12:24;;;;;;;;;;;8.60;99.90;;;;;;6244466;23;19934;-91
2024/03/03 03:20:32;;;;;;;;;;;8.10;99.90;;;;;;6243178;22;19919;-92
2024/03/03 03:26:12;;;;;;;;;;;8.50;99.90;;;;;;6249993;22;19919;-92
2024/03/03 03:31:36;;;;;;;;;;;8.70;99.90;;;;;;6241990;22;19923;-91
2024/03/03 03:37:19;;;;;;;;;;;8.50;99.90;;;;;;6203210;22;20036;-91
2024/03/03 03:40:24;;;;;;;;;;;7.50;99.90;;;;;;6260457;23;19941;-90
2024/03/03 03:48:57;;;;;;;;;;;;;;;;;;;;;
2024/03/03 03:51:42;;;;;;;;;;;8.00;99.90;;;;;;6252650;23;19960;-91
2024/03/03 04:12:38;;;;;;;;;;;9.00;99.90;;;;;;6251724;22;19920;-90
2024/03/03 04:15:17;;;;;;;;;;;8.40;99.90;;;;;;6154047;23;19946;-91
2024/03/03 04:18:13;;;;;;;;;;;;;;;;;;;;;
2024/03/03 04:21:10;;;;;;;;;;;;;;;;;;;;;
2024/03/03 04:29:40;;;;;;;;;;;8.20;99.90;;;;;;6043980;23;20055;-92
2024/03/03 04:35:25;;;;;;;;;;;8.40;99.90;;;;;;6049876;23;19943;-91
2024/03/03 04:38:09;;;;;;;;;;;7.70;99.90;;;;;;6068154;23;19910;-92
2024/03/03 04:41:02;;;;;;;;;;;8.10;99.90;;;;;;6136034;23;20418;-91
2024/03/03 04:43:53;;;;;;;;;;;8.60;99.90;;;;;;6132040;23;20382;-91
2024/03/03 04:46:25;;;;;;;;;;;7.70;99.90;;;;;;6154036;23;19904;-91
2024/03/03 04:49:00;;;;;;;;;;;9.40;99.90;;;;;;6245783;23;19927;-92
2024/03/03 04:51:46;;;;;;;;;;;8.60;99.90;;;;;;6242807;23;19983;-92
2024/03/03 04:54:27;;;;;;;;;;;7.90;99.90;;;;;;6227748;23;19965;-92
2024/03/03 04:57:09;;;;;;;;;;;7.80;99.90;;;;;;6228735;23;20008;-92
2024/03/03 05:03:00;;;;;;;;;;;8.60;99.90;;;;;;6236603;23;19954;-92
2024/03/03 05:05:49;;;;;;;;;;;7.90;99.90;;;;;;6225779;23;19958;-92
2024/03/03 05:08:36;;;;;;;;;;;8.70;99.90;;;;;;6223441;23;19936;-89
2024/03/03 05:11:27;;;;;;;;;;;;;;;;;;;;;
2024/03/03 05:14:05;;;;;;;;;;;9.70;99.90;;;;;;6237315;23;19949;-91
2024/03/03 05:16:41;;;;;;;;;;;8.50;99.90;;;;;;6244247;23;19939;-91
2024/03/03 05:27:56;;;;;;;;;;;8.30;99.90;;;;;;6245657;23;19931;-91
2024/03/03 05:30:26;;;;;;;;;;;8.80;99.90;;;;;;6228329;23;19958;-90
2024/03/03 05:33:32;;;;;;;;;;;;;;;;;;;;;
2024/03/03 07:35:21;;;;;;;;;;;9.20;99.90;;;;;;6256636;22;19915;-94
2024/03/03 08:47:50;;;;;;;;;;;10.60;1.00;;;;;;6260987;22;19931;-87
2024/03/03 08:50:23;;;;;;;;;;;9.80;1.00;;;;;;6276499;22;19924;-87
2024/03/03 08:53:05;;;;;;;;;;;10.00;1.00;;;;;;6262859;22;19934;-88
2024/03/03 08:55:35;;;;;;;;;;;11.20;1.00;;;;;;6255159;23;20019;-86
2024/03/03 08:58:05;;;;;;;;;;;10.90;99.90;;;;;;6266377;22;19907;-87
2024/03/03 09:00:32;;;;;;;;;;;11.00;99.90;;;;;;6276417;22;19908;-87
2024/03/03 09:03:01;;;;;;;;;;;11.80;99.90;;;;;;6263509;22;20398;-88
2024/03/03 09:05:36;;;;;;;;;;;11.20;99.90;;;;;;6257772;23;20012;-87
2024/03/03 09:08:05;;;;;;;;;;;10.90;99.90;;;;;;6260346;22;19939;-88
2024/03/03 09:10:31;;;;;;;;;;;11.50;99.90;;;;;;6264816;23;19919;-87
2024/03/03 09:13:00;;;;;;;;;;;11.60;99.90;;;;;;6268242;23;19941;-87
2024/03/03 09:15:30;;;;;;;;;;;12.80;67.40;;;;;;6272109;23;19919;-87
2024/03/03 09:17:57;;;;;;;;;;;11.70;52.10;;;;;;6272244;22;19988;-87
2024/03/03 09:20:26;;;;;;;;;;;11.30;1.00;;;;;;6270714;23;19942;-87
2024/03/03 09:22:56;;;;;;;;;;;11.90;1.00;;;;;;6261351;23;19951;-87
2024/03/03 09:25:26;;;;;;;;;;;11.60;1.00;;;;;;6261188;23;20011;-87
2024/03/03 09:27:53;;;;;;;;;;;11.60;1.00;;;;;;6255605;22;20006;-88
2024/03/03 09:30:20;;;;;;;;;;;12.50;1.00;;;;;;6256187;22;20364;-87
2024/03/03 09:32:51;;;;;;;;;;;11.90;1.00;;;;;;6261410;23;19958;-87
2024/03/03 09:35:21;;;;;;;;;;;11.70;1.00;;;;;;6269156;22;19944;-87
2024/03/03 09:37:52;;;;;;;;;;;12.00;99.90;;;;;;6270036;22;19953;-87
2024/03/03 09:40:32;;;;;;;;;;;12.20;99.90;;;;;;6262270;23;19992;-87
2024/03/03 09:43:00;;;;;;;;;;;12.30;99.90;;;;;;6265342;23;19957;-88
2024/03/03 09:45:36;;;;;;;;;;;12.10;99.90;;;;;;6264975;23;19919;-87
2024/03/03 09:51:22;;;;;;;;;;;12.50;30.90;;;;;;6107550;23;20005;-88
2024/03/03 09:53:55;;;;;;;;;;;12.50;99.90;;;;;;6255187;23;20000;-89
2024/03/03 09:56:24;;;;;;;;;;;12.40;1.00;;;;;;6255035;22;19961;-89
2024/03/03 09:59:00;;;;;;;;;;;12.60;1.00;;;;;;6268842;22;19945;-87
2024/03/03 10:01:30;;;;;;;;;;;13.30;26.00;;;;;;6256304;23;19936;-88
2024/03/03 10:04:00;;;;;;;;;;;12.10;1.00;;;;;;6254648;23;19971;-88
2024/03/03 10:06:28;;;;;;;;;;;12.70;1.00;;;;;;6256129;22;20340;-88
2024/03/03 10:08:58;;;;;;;;;;;12.50;99.90;;;;;;6261283;23;20032;-87
2024/03/03 10:11:27;;;;;;;;;;;11.90;1.00;;;;;;6270100;23;19919;-87
2024/03/03 10:13:54;;;;;;;;;;;13.20;99.90;;;;;;6256426;23;19948;-88
2024/03/03 10:16:24;;;;;;;;;;;12.60;99.90;;;;;;6254920;22;19958;-88
2024/03/03 10:19:14;;;;;;;;;;;12.70;99.90;;;;;;6266080;23;19939;-88
2024/03/03 10:21:46;;;;;;;;;;;12.50;1.00;;;;;;6270662;22;19944;-88
2024/03/03 10:24:20;;;;;;;;;;;12.70;1.00;;;;;;6255991;23;19954;-88
2024/03/03 10:26:48;;;;;;;;;;;12.90;1.00;;;;;;6260208;22;19957;-88
2024/03/03 10:29:20;;;;;;;;;;;12.90;1.00;;;;;;6266820;23;19948;-87
2024/03/03 10:31:47;;;;;;;;;;;12.60;1.00;;;;;;6271552;22;19936;-88
2024/03/03 10:34:14;;;;;;;;;;;13.10;1.00;;;;;;6265621;23;19944;-87
2024/03/03 10:36:42;;;;;;;;;;;12.70;99.90;;;;;;6274022;22;19946;-88
2024/03/03 10:39:09;;;;;;;;;;;12.90;33.30;;;;;;6273309;22;19969;-88
2024/03/03 10:41:37;;;;;;;;;;;13.40;1.00;;;;;;6270671;23;20005;-88
2024/03/03 10:44:04;;;;;;;;;;;13.10;1.00;;;;;;6263663;23;19941;-88
2024/03/03 10:46:31;;;;;;;;;;;13.20;1.00;;;;;;6256181;22;19960;-88
2024/03/03 10:48:59;;;;;;;;;;;13.40;1.00;;;;;;6254892;23;19920;-88
2024/03/03 10:51:27;;;;;;;;;;;13.90;1.00;;;;;;6255243;23;19931;-88
2024/03/03 10:53:59;;;;;;;;;;;13.80;1.00;;;;;;6257830;23;19961;-88
2024/03/03 10:59:30;;;;;;;;;;;13.40;99.90;;;;;;6241010;22;19948;-88
2024/03/03 11:01:59;;;;;;;;;;;13.50;99.90;;;;;;6254851;23;20012;-88
2024/03/03 11:04:31;;;;;;;;;;;14.10;99.90;;;;;;6254392;23;19953;-88
2024/03/03 11:06:59;;;;;;;;;;;13.60;99.90;;;;;;6252925;22;20396;-88
2024/03/03 11:09:27;;;;;;;;;;;14.20;99.90;;;;;;6251994;23;19920;-89
2024/03/03 11:12:00;;;;;;;;;;;13.40;99.90;;;;;;6251509;23;19943;-88
2024/03/03 11:14:32;;;;;;;;;;;14.20;99.90;;;;;;6262589;23;19934;-89
2024/03/03 11:17:06;;;;;;;;;;;13.70;91.50;;;;;;6266441;22;19973;-90
2024/03/03 11:19:35;;;;;;;;;;;13.80;99.90;;;;;;6254645;23;19958;-88
2024/03/03 11:22:07;;;;;;;;;;;13.60;74.40;;;;;;6262899;23;19945;-88
2024/03/03 11:27:28;;;;;;;;;;;13.60;88.00;;;;;;6270350;22;19940;-89
2024/03/03 11:32:54;;;;;;;;;;;14.20;59.60;;;;;;6240970;23;19978;-89
2024/03/03 11:35:36;;;;;;;;;;;13.70;44.60;;;;;;6260682;23;19957;-89
2024/03/03 11:38:12;;;;;;;;;;;14.10;75.20;;;;;;6257735;23;19958;-88
2024/03/03 11:40:41;;;;;;;;;;;14.30;67.80;;;;;;6274241;22;19914;-88
2024/03/03 11:43:30;;;;;;;;;;;14.50;99.90;;;;;;6272671;23;19904;-87
2024/03/03 11:46:03;;;;;;;;;;;13.90;99.90;;;;;;6265974;22;19919;-88
2024/03/03 11:48:31;;;;;;;;;;;13.50;99.90;;;;;;6268806;23;19908;-88
2024/03/03 11:51:16;;;;;;;;;;;13.90;1.00;;;;;;6264544;22;19926;-88
2024/03/03 11:53:58;;;;;;;;;;;13.70;99.90;;;;;;6260622;22;19967;-89
2024/03/03 11:56:51;;;;;;;;;;;13.90;99.90;;;;;;6272713;22;19949;-88
2024/03/03 11:59:27;;;;;;;;;;;14.00;99.90;;;;;;6273593;22;19910;-87
2024/03/03 12:02:01;;;;;;;;;;;12.50;99.90;;;;;;6274529;22;19911;-87
2024/03/03 12:04:39;;;;;;;;;;;13.90;99.90;;;;;;6274519;22;19958;-87
2024/03/03 12:07:16;;;;;;;;;;;14.80;99.90;;;;;;6274515;22;19958;-88
2024/03/03 12:09:58;;;;;;;;;;;13.90;99.90;;;;;;6270149;22;20342;-89
2024/03/03 12:18:29;;;;;;;;;;;13.50;99.90;;;;;;6264604;23;19916;-89
2024/03/03 12:20:56;;;;;;;;;;;14.30;99.90;;;;;;6265190;23;19987;-89
2024/03/03 12:23:23;;;;;;;;;;;14.20;99.90;;;;;;6258941;22;20034;-89
2024/03/03 12:25:52;;;;;;;;;;;13.40;99.90;;;;;;6259564;22;19927;-89
2024/03/03 12:28:23;;;;;;;;;;;13.40;99.90;;;;;;6262903;23;19995;-89
2024/03/03 12:30:55;;;;;;;;;;;13.80;99.90;;;;;;6269304;22;19927;-88
2024/03/03 12:36:36;;;;;;;;;;;13.80;79.00;;;;;;6276712;22;19977;-87
2024/03/03 12:39:07;;;;;;;;;;;12.90;1.00;;;;;;6276051;22;19937;-88
2024/03/03 12:41:46;;;;;;;;;;;13.60;8.20;;;;;;6274893;22;19904;-89
2024/03/03 12:44:18;;;;;;;;;;;13.70;1.00;;;;;;6267017;23;19919;-89
2024/03/03 12:46:52;;;;;;;;;;;13.70;1.00;;;;;;6264978;22;19924;-89
2024/03/03 12:49:23;;;;;;;;;;;12.90;1.00;;;;;;6262771;23;19920;-89
2024/03/03 12:52:00;;;;;;;;;;;13.60;1.00;;;;;;6263295;23;19965;-89
2024/03/03 12:54:33;;;;;;;;;;;13.40;1.00;;;;;;6262010;23;19920;-89
2024/03/03 12:57:03;;;;;;;;;;;13.90;1.00;;;;;;6263212;22;19961;-89
2024/03/03 12:59:31;;;;;;;;;;;13.60;42.80;;;;;;6261499;23;19919;-88
2024/03/03 13:02:00;;;;;;;;;;;12.50;1.00;;;;;;6261679;23;19938;-89
2024/03/03 13:04:28;;;;;;;;;;;13.70;1.00;;;;;;6272150;23;19972;-89
2024/03/03 13:06:59;;;;;;;;;;;13.60;1.00;;;;;;6259463;22;20022;-88
2024/03/03 13:09:26;;;;;;;;;;;13.80;1.00;;;;;;6260030;23;20297;-88
2024/03/03 13:11:58;;;;;;;;;;;13.70;1.00;;;;;;6258675;23;19920;-89
2024/03/03 13:14:26;;;;;;;;;;;14.20;1.00;;;;;;6260635;22;19962;-89
2024/03/03 13:17:04;;;;;;;;;;;13.60;1.00;;;;;;6263251;22;20004;-88
2024/03/03 13:19:44;;;;;;;;;;;13.60;1.00;;;;;;6263035;23;19941;-88
2024/03/03 13:22:17;;;;;;;;;;;13.70;1.00;;;;;;6258232;23;19998;-89
2024/03/03 13:24:51;;;;;;;;;;;13.90;1.00;;;;;;6258939;22;19926;-88
2024/03/03 13:27:18;;;;;;;;;;;13.00;1.00;;;;;;6257229;22;19963;-88
2024/03/03 13:29:47;;;;;;;;;;;14.10;1.00;;;;;;6254605;23;19965;-89
2024/03/03 13:32:14;;;;;;;;;;;13.80;1.00;;;;;;6255593;23;20009;-88
2024/03/03 13:34:41;;;;;;;;;;;13.90;1.00;;;;;;6255156;23;19939;-88
2024/03/03 13:37:17;;;;;;;;;;;13.70;1.00;;;;;;6259250;22;19961;-87
2024/03/03 13:39:46;;;;;;;;;;;13.60;1.00;;;;;;6266713;22;19908;-88
2024/03/03 13:42:13;;;;;;;;;;;13.70;1.00;;;;;;6273418;22;19974;-89
2024/03/03 13:44:41;;;;;;;;;;;14.00;1.00;;;;;;6275723;22;19938;-89
2024/03/03 13:47:10;;;;;;;;;;;14.40;1.00;;;;;;6275080;22;19968;-89
2024/03/03 13:49:37;;;;;;;;;;;13.50;1.00;;;;;;6259054;23;19926;-89
2024/03/03 13:52:10;;;;;;;;;;;13.70;1.00;;;;;;6255747;23;19919;-88
2024/03/03 13:54:42;;;;;;;;;;;13.30;1.00;;;;;;6255883;23;20005;-89
2024/03/03 13:57:11;;;;;;;;;;;13.80;1.00;;;;;;6254189;22;19958;-88
2024/03/03 13:59:39;;;;;;;;;;;13.40;1.00;;;;;;6270089;22;19904;-89
2024/03/03 14:02:09;;;;;;;;;;;14.40;1.00;;;;;;6257642;23;19999;-89
2024/03/03 14:04:35;;;;;;;;;;;13.90;1.00;;;;;;6259252;23;20455;-89
2024/03/03 14:07:04;;;;;;;;;;;13.40;1.00;;;;;;6259124;22;19955;-89
2024/03/03 14:09:33;;;;;;;;;;;13.70;1.00;;;;;;6263747;23;19971;-90
2024/03/03 14:12:06;;;;;;;;;;;13.50;1.00;;;;;;6267252;23;19938;-90
2024/03/03 14:14:37;;;;;;;;;;;13.40;1.00;;;;;;6265715;23;19960;-90
2024/03/03 14:17:06;;;;;;;;;;;13.80;1.00;;;;;;6272233;22;19938;-89
2024/03/03 14:19:50;;;;;;;;;;;13.80;39.90;;;;;;6265141;22;19958;-89
2024/03/03 14:22:20;;;;;;;;;;;13.60;1.00;;;;;;6266255;22;19903;-89
2024/03/03 14:24:50;;;;;;;;;;;13.20;1.00;;;;;;6275001;22;19942;-91
2024/03/03 14:27:20;;;;;;;;;;;13.80;1.00;;;;;;6275479;22;19910;-89
2024/03/03 14:29:51;;;;;;;;;;;13.60;1.00;;;;;;6275228;22;19945;-90
2024/03/03 14:32:22;;;;;;;;;;;13.80;1.00;;;;;;6266197;22;19919;-88
2024/03/03 14:34:52;;;;;;;;;;;13.80;1.00;;;;;;6264137;22;19961;-88
2024/03/03 14:37:20;;;;;;;;;;;13.60;1.00;;;;;;6262137;22;19920;-88
2024/03/03 14:39:49;;;;;;;;;;;13.50;8.30;;;;;;6271077;22;19919;-90
2024/03/03 14:42:17;;;;;;;;;;;13.30;1.00;;;;;;6259456;23;19931;-90
2024/03/03 14:44:45;;;;;;;;;;;12.90;19.50;;;;;;6271153;23;19926;-89
2024/03/03 14:47:24;;;;;;;;;;;13.40;1.00;;;;;;6271230;22;19946;-89
2024/03/03 14:49:54;;;;;;;;;;;13.60;1.00;;;;;;6265965;23;20424;-89
2024/03/03 14:52:26;;;;;;;;;;;13.70;99.90;;;;;;6257989;23;20010;-89
2024/03/03 14:54:57;;;;;;;;;;;13.20;99.90;;;;;;6260863;22;20303;-89
2024/03/03 14:57:27;;;;;;;;;;;13.80;99.90;;;;;;6259896;22;20404;-88
2024/03/03 14:59:54;;;;;;;;;;;13.60;99.90;;;;;;6259131;23;19980;-88
2024/03/03 15:35:03;;;;;;;;;;;14.00;1.00;;;;;;6236792;23;19927;-90
2024/03/03 16:54:15;;;;;;;;;;;;;;;;;;;;;
2024/03/03 16:59:54;;;;;;;;;;;13.20;1.00;;;;;;6258021;22;19940;-92
2024/03/03 17:09:02;;;;;;;;;;;13.00;1.00;;;;;;6251355;22;19927;-92
2024/03/03 18:45:00;;;;;;;;;;;12.10;1.00;;;;;;6259600;22;19964;-92
2024/03/03 18:50:49;;;;;;;;;;;11.90;1.00;;;;;;6115219;23;19973;-91
2024/03/03 21:22:51;;;;;;;;;;;10.70;1.00;;;;;;6258126;22;19904;-91
2024/03/03 23:18:15;;;;;;;;;;;10.60;1.00;;;;;;6226775;22;19919;-91
